createdAt,value
2018-06-30T00:00:08.135Z,15.80
2018-06-30T00:02:43.483Z,15.80
2018-06-30T00:05:19.162Z,15.80
2018-06-30T00:07:54.874Z,15.80
2018-06-30T00:10:31.429Z,15.80
2018-06-30T00:13:06.938Z,15.80
2018-06-30T00:15:42.370Z,15.70
2018-06-30T00:18:17.731Z,15.70
2018-06-30T00:20:53.666Z,15.60
2018-06-30T00:23:29.154Z,15.60
2018-06-30T00:26:04.670Z,15.60
2018-06-30T00:28:40.108Z,15.60
2018-06-30T00:31:15.881Z,15.60
2018-06-30T00:33:51.271Z,15.50
2018-06-30T00:36:26.696Z,15.50
2018-06-30T00:39:02.019Z,15.40
2018-06-30T00:41:37.534Z,15.40
2018-06-30T00:46:48.526Z,15.40
2018-06-30T00:52:00.036Z,15.30
2018-06-30T00:54:35.795Z,15.30
2018-06-30T00:57:11.131Z,15.30
2018-06-30T00:59:46.678Z,15.30
2018-06-30T01:02:22.321Z,15.30
2018-06-30T01:04:57.791Z,15.20
2018-06-30T01:07:33.426Z,15.10
2018-06-30T01:10:08.723Z,15.10
2018-06-30T01:12:44.310Z,15.10
2018-06-30T01:15:19.506Z,15.10
2018-06-30T01:17:55.068Z,15.10
2018-06-30T01:20:30.362Z,15.00
2018-06-30T01:23:06.324Z,15.00
2018-06-30T01:25:41.764Z,14.90
2018-06-30T01:28:17.285Z,15.00
2018-06-30T01:30:52.755Z,15.00
2018-06-30T01:33:28.482Z,15.00
2018-06-30T01:36:03.951Z,14.90
2018-06-30T01:38:39.374Z,14.90
2018-06-30T01:41:14.832Z,14.80
2018-06-30T01:43:50.274Z,14.80
2018-06-30T01:46:25.506Z,14.80
2018-06-30T01:49:00.886Z,14.90
2018-06-30T01:51:36.111Z,14.90
2018-06-30T01:56:46.888Z,14.90
2018-06-30T01:59:22.838Z,14.90
2018-06-30T02:01:58.323Z,14.90
2018-06-30T02:04:33.859Z,15.00
2018-06-30T02:07:09.066Z,14.90
2018-06-30T02:09:44.615Z,14.90
2018-06-30T02:12:20.114Z,14.90
2018-06-30T02:14:55.810Z,14.80
2018-06-30T02:17:31.163Z,14.80
2018-06-30T02:20:06.715Z,14.80
2018-06-30T02:22:42.230Z,14.80
2018-06-30T02:25:17.899Z,14.80
2018-06-30T02:27:53.367Z,14.70
2018-06-30T02:30:28.814Z,14.80
2018-06-30T02:35:39.579Z,14.50
2018-06-30T02:38:15.065Z,14.60
2018-06-30T02:40:50.496Z,14.50
2018-06-30T02:43:25.941Z,14.50
2018-06-30T02:46:01.543Z,14.50
2018-06-30T02:48:36.772Z,14.60
2018-06-30T02:51:12.351Z,14.50
2018-06-30T02:53:47.847Z,14.50
2018-06-30T02:56:23.553Z,14.50
2018-06-30T02:59:02.042Z,14.50
2018-06-30T03:01:37.826Z,14.40
2018-06-30T03:04:13.327Z,14.40
2018-06-30T03:06:48.822Z,14.50
2018-06-30T03:11:59.394Z,14.40
2018-06-30T03:14:35.249Z,14.40
2018-06-30T03:17:10.998Z,14.40
2018-06-30T03:19:46.343Z,14.30
2018-06-30T03:22:21.789Z,14.40
2018-06-30T03:24:58.126Z,14.30
2018-06-30T03:27:33.706Z,14.30
2018-06-30T03:30:09.227Z,14.30
2018-06-30T03:32:45.005Z,14.30
2018-06-30T03:35:20.482Z,14.30
2018-06-30T03:37:56.102Z,14.30
2018-06-30T03:40:31.603Z,14.30
2018-06-30T03:43:07.290Z,14.30
2018-06-30T03:45:42.781Z,14.30
2018-06-30T03:48:18.413Z,14.30
2018-06-30T03:50:53.719Z,14.40
2018-06-30T03:53:29.229Z,14.40
2018-06-30T03:56:04.511Z,14.40
2018-06-30T03:58:40.066Z,14.40
2018-06-30T04:01:15.515Z,14.40
2018-06-30T04:03:51.262Z,14.50
2018-06-30T04:06:26.716Z,14.50
2018-06-30T04:09:02.281Z,14.60
2018-06-30T04:11:37.994Z,14.60
2018-06-30T04:14:13.459Z,14.60
2018-06-30T04:16:48.962Z,14.60
2018-06-30T04:19:24.452Z,14.60
2018-06-30T04:21:59.715Z,14.60
2018-06-30T04:24:35.239Z,14.60
2018-06-30T04:27:10.715Z,14.70
2018-06-30T04:29:46.123Z,14.70
2018-06-30T04:32:21.581Z,14.70
2018-06-30T04:34:57.141Z,14.80
2018-06-30T04:37:32.507Z,14.90
2018-06-30T04:40:08.115Z,14.90
2018-06-30T04:42:43.591Z,15.00
2018-06-30T04:45:19.350Z,14.90
2018-06-30T04:47:57.745Z,15.00
2018-06-30T04:50:33.387Z,15.10
2018-06-30T04:53:08.892Z,15.50
2018-06-30T04:55:44.661Z,18.70
2018-06-30T04:58:20.112Z,21.70
2018-06-30T05:03:31.026Z,25.40
2018-06-30T05:06:06.547Z,26.20
2018-06-30T05:08:41.963Z,26.60
2018-06-30T05:13:52.631Z,27.80
2018-06-30T05:16:28.134Z,27.90
2018-06-30T05:19:03.643Z,27.90
2018-06-30T05:21:39.202Z,27.90
2018-06-30T05:24:14.694Z,28.60
2018-06-30T05:26:50.236Z,28.80
2018-06-30T05:29:25.745Z,29.10
2018-06-30T05:32:01.523Z,30.00
2018-06-30T05:34:43.435Z,30.20
2018-06-30T05:37:19.170Z,30.80
2018-06-30T05:39:55.046Z,30.20
2018-06-30T05:42:30.784Z,29.60
2018-06-30T05:45:06.527Z,29.90
2018-06-30T05:47:42.178Z,29.30
2018-06-30T05:50:17.443Z,28.80
2018-06-30T05:52:53.080Z,29.30
2018-06-30T05:55:28.378Z,28.90
2018-06-30T06:00:39.210Z,28.90
2018-06-30T06:03:14.769Z,28.80
2018-06-30T06:05:50.203Z,29.80
2018-06-30T06:08:25.761Z,29.50
2018-06-30T06:11:01.058Z,29.20
2018-06-30T06:13:36.585Z,29.40
2018-06-30T06:16:12.000Z,28.60
2018-06-30T06:18:47.723Z,28.60
2018-06-30T06:21:23.227Z,28.50
2018-06-30T06:23:58.758Z,28.80
2018-06-30T06:26:34.231Z,28.90
2018-06-30T06:29:09.714Z,29.00
2018-06-30T06:31:45.195Z,29.80
2018-06-30T06:34:20.703Z,28.70
2018-06-30T06:36:56.438Z,28.90
2018-06-30T06:39:31.910Z,28.30
2018-06-30T06:42:07.259Z,28.70
2018-06-30T06:44:43.018Z,28.60
2018-06-30T06:47:18.318Z,28.60
2018-06-30T06:49:54.094Z,29.00
2018-06-30T06:52:29.334Z,29.10
2018-06-30T06:55:04.780Z,29.60
2018-06-30T06:57:40.259Z,29.10
2018-06-30T07:00:15.980Z,28.50
2018-06-30T07:02:51.402Z,28.20
2018-06-30T07:05:27.200Z,28.20
2018-06-30T07:08:03.481Z,28.00
2018-06-30T07:10:38.951Z,28.50
2018-06-30T07:13:15.419Z,28.60
2018-06-30T07:15:51.008Z,28.30
2018-06-30T07:18:26.359Z,28.80
2018-06-30T07:21:01.792Z,29.40
2018-06-30T07:23:37.310Z,29.10
2018-06-30T07:26:12.986Z,28.90
2018-06-30T07:28:48.479Z,29.10
2018-06-30T07:31:23.981Z,29.80
2018-06-30T07:33:59.540Z,29.00
2018-06-30T07:36:35.383Z,28.40
2018-06-30T07:39:10.877Z,28.30
2018-06-30T07:41:46.379Z,28.80
2018-06-30T07:44:21.939Z,29.00
2018-06-30T07:46:57.575Z,29.00
2018-06-30T07:49:33.070Z,29.20
2018-06-30T07:52:08.643Z,29.50
2018-06-30T07:54:43.874Z,28.00
2018-06-30T07:57:19.327Z,27.10
2018-06-30T07:59:54.795Z,26.80
2018-06-30T08:02:30.347Z,26.60
2018-06-30T08:05:06.080Z,27.20
2018-06-30T08:07:41.643Z,27.40
2018-06-30T08:12:52.541Z,26.80
2018-06-30T08:15:28.019Z,25.90
2018-06-30T08:18:03.535Z,25.10
2018-06-30T08:20:38.992Z,24.30
2018-06-30T08:23:14.521Z,23.70
2018-06-30T08:25:49.823Z,23.30
2018-06-30T08:28:25.506Z,22.80
2018-06-30T08:31:01.027Z,23.00
2018-06-30T08:36:11.929Z,22.70
2018-06-30T08:38:47.805Z,22.60
2018-06-30T08:41:23.611Z,22.30
2018-06-30T08:43:59.209Z,22.00
2018-06-30T08:46:34.730Z,21.80
2018-06-30T08:49:10.701Z,22.20
2018-06-30T08:51:46.716Z,22.30
2018-06-30T08:54:22.320Z,22.50
2018-06-30T08:56:57.889Z,22.30
2018-06-30T08:59:33.662Z,22.50
2018-06-30T09:02:09.031Z,22.40
2018-06-30T09:04:44.513Z,22.30
2018-06-30T09:07:19.942Z,22.30
2018-06-30T09:09:55.605Z,22.40
2018-06-30T09:12:31.113Z,22.30
2018-06-30T09:15:06.799Z,22.30
2018-06-30T09:17:42.147Z,22.20
2018-06-30T09:20:17.624Z,22.30
2018-06-30T09:22:53.110Z,22.40
2018-06-30T09:25:29.070Z,22.80
2018-06-30T09:28:04.340Z,22.60
2018-06-30T09:30:40.177Z,22.70
2018-06-30T09:33:15.960Z,22.70
2018-06-30T09:35:51.615Z,23.00
2018-06-30T09:38:27.223Z,23.40
2018-06-30T09:41:03.512Z,23.10
2018-06-30T09:43:38.917Z,23.00
2018-06-30T09:46:14.518Z,23.10
2018-06-30T09:48:50.026Z,23.10
2018-06-30T09:51:26.301Z,23.20
2018-06-30T09:54:02.055Z,22.90
2018-06-30T09:56:37.503Z,23.00
2018-06-30T09:59:13.026Z,23.10
2018-06-30T10:01:48.707Z,23.10
2018-06-30T10:04:24.181Z,22.40
2018-06-30T10:06:59.705Z,22.60
2018-06-30T10:09:35.266Z,23.00
2018-06-30T10:12:10.693Z,23.30
2018-06-30T10:14:45.932Z,23.60
2018-06-30T10:17:21.475Z,23.60
2018-06-30T10:19:56.847Z,23.80
2018-06-30T10:22:32.278Z,23.20
2018-06-30T10:25:07.638Z,22.90
2018-06-30T10:27:43.080Z,23.50
2018-06-30T10:32:53.843Z,23.80
2018-06-30T10:35:29.306Z,24.10
2018-06-30T10:38:11.384Z,24.30
2018-06-30T10:40:46.738Z,24.40
2018-06-30T10:43:22.170Z,24.40
2018-06-30T10:45:57.694Z,24.60
2018-06-30T10:48:33.281Z,25.00
2018-06-30T10:51:08.570Z,25.20
2018-06-30T10:53:44.272Z,25.20
2018-06-30T10:56:19.609Z,24.70
2018-06-30T10:58:55.353Z,24.00
2018-06-30T11:01:31.029Z,23.80
2018-06-30T11:04:06.670Z,24.10
2018-06-30T11:06:42.129Z,24.20
2018-06-30T11:09:17.678Z,24.60
2018-06-30T11:11:53.032Z,25.00
2018-06-30T11:14:28.657Z,24.70
2018-06-30T11:17:04.034Z,24.30
2018-06-30T11:19:39.886Z,23.70
2018-06-30T11:22:15.397Z,23.60
2018-06-30T11:24:50.831Z,24.00
2018-06-30T11:27:26.289Z,24.40
2018-06-30T11:30:01.929Z,24.80
2018-06-30T11:32:37.372Z,25.20
2018-06-30T11:35:13.026Z,25.30
2018-06-30T11:37:48.506Z,25.10
2018-06-30T11:40:23.923Z,25.50
2018-06-30T11:42:59.422Z,25.60
2018-06-30T11:45:35.210Z,25.60
2018-06-30T11:48:10.403Z,25.50
2018-06-30T11:50:46.216Z,24.90
2018-06-30T11:58:32.632Z,25.20
2018-06-30T12:01:08.495Z,25.30
2018-06-30T12:06:20.149Z,25.80
2018-06-30T12:11:30.838Z,25.40
2018-06-30T12:14:07.142Z,25.40
2018-06-30T12:16:42.810Z,25.70
2018-06-30T12:19:18.322Z,25.20
2018-06-30T12:21:53.717Z,25.40
2018-06-30T12:24:29.174Z,25.40
2018-06-30T12:27:04.795Z,25.50
2018-06-30T12:29:40.295Z,24.90
2018-06-30T12:32:15.732Z,24.40
2018-06-30T12:37:26.072Z,24.00
2018-06-30T12:40:01.503Z,24.20
2018-06-30T12:42:37.154Z,24.60
2018-06-30T12:45:12.720Z,24.30
2018-06-30T12:47:48.454Z,24.50
2018-06-30T12:50:23.666Z,24.70
2018-06-30T12:52:59.347Z,25.10
2018-06-30T12:55:34.702Z,25.30
2018-06-30T12:58:10.142Z,25.80
2018-06-30T13:00:45.714Z,25.70
2018-06-30T13:03:21.433Z,25.20
2018-06-30T13:05:56.867Z,24.70
2018-06-30T13:08:32.426Z,24.30
2018-06-30T13:11:07.889Z,24.20
2018-06-30T13:13:43.389Z,24.10
2018-06-30T13:16:18.835Z,23.90
2018-06-30T13:18:54.311Z,24.30
2018-06-30T13:21:29.836Z,24.80
2018-06-30T13:24:06.236Z,25.10
2018-06-30T13:26:41.702Z,25.50
2018-06-30T13:29:17.118Z,25.40
2018-06-30T13:31:52.335Z,25.50
2018-06-30T13:34:28.071Z,25.90
2018-06-30T13:37:03.459Z,25.80
2018-06-30T13:39:39.111Z,25.40
2018-06-30T13:42:14.278Z,25.00
2018-06-30T13:44:49.998Z,24.70
2018-06-30T13:47:25.406Z,24.20
2018-06-30T13:50:00.971Z,23.90
2018-06-30T13:52:36.446Z,23.70
2018-06-30T13:55:11.866Z,23.60
2018-06-30T14:00:22.790Z,24.40
2018-06-30T14:02:58.194Z,25.00
2018-06-30T14:05:33.754Z,25.20
2018-06-30T14:08:09.217Z,25.50
2018-06-30T14:10:44.850Z,25.10
2018-06-30T14:13:20.102Z,25.10
2018-06-30T14:15:55.646Z,25.00
2018-06-30T14:18:31.120Z,24.70
2018-06-30T14:21:06.754Z,24.50
2018-06-30T14:23:42.271Z,24.20
2018-06-30T14:26:17.951Z,24.50
2018-06-30T14:28:53.470Z,24.70
2018-06-30T14:31:29.235Z,24.80
2018-06-30T14:34:04.671Z,24.60
2018-06-30T14:36:40.322Z,24.80
2018-06-30T14:39:15.718Z,25.00
2018-06-30T14:41:51.547Z,25.40
2018-06-30T14:44:31.047Z,25.50
2018-06-30T14:49:42.055Z,25.20
2018-06-30T14:52:17.632Z,24.70
2018-06-30T14:54:53.150Z,24.40
2018-06-30T14:57:28.804Z,24.20
2018-06-30T15:00:04.864Z,24.10
2018-06-30T15:02:40.819Z,24.30
2018-06-30T15:05:16.287Z,24.50
2018-06-30T15:10:27.798Z,24.60
2018-06-30T15:13:03.244Z,24.50
2018-06-30T15:15:38.942Z,24.50
2018-06-30T15:18:14.510Z,24.30
2018-06-30T15:20:49.871Z,24.40
2018-06-30T15:23:25.429Z,24.20
2018-06-30T15:26:00.878Z,24.40
2018-06-30T15:28:36.374Z,24.30
2018-06-30T15:31:11.623Z,24.20
2018-06-30T15:33:47.078Z,24.10
2018-06-30T15:36:22.514Z,24.00
2018-06-30T15:38:58.070Z,23.90
2018-06-30T15:41:33.386Z,24.10
2018-06-30T15:44:09.070Z,24.20
2018-06-30T15:49:19.750Z,24.30
2018-06-30T15:51:55.237Z,24.40
2018-06-30T15:54:30.748Z,24.50
2018-06-30T15:57:06.781Z,24.40
2018-06-30T15:59:42.774Z,24.40
2018-06-30T16:02:18.126Z,24.20
2018-06-30T16:04:53.662Z,24.00
2018-06-30T16:07:29.122Z,23.80
2018-06-30T16:10:04.938Z,23.90
2018-06-30T16:12:40.082Z,23.90
2018-06-30T16:15:16.156Z,23.90
2018-06-30T16:17:52.127Z,24.00
2018-06-30T16:20:27.764Z,24.00
2018-06-30T16:23:03.394Z,24.00
2018-06-30T16:25:38.749Z,24.00
2018-06-30T16:28:14.210Z,23.90
2018-06-30T16:30:49.957Z,24.00
2018-06-30T16:33:25.373Z,23.90
2018-06-30T16:36:00.770Z,23.80
2018-06-30T16:38:36.303Z,23.70
2018-06-30T16:41:11.974Z,23.60
2018-06-30T16:43:47.313Z,23.60
2018-06-30T16:46:23.557Z,23.50
2018-06-30T16:48:59.023Z,23.50
2018-06-30T16:51:34.431Z,23.50
2018-06-30T16:54:09.854Z,23.40
2018-06-30T16:56:45.430Z,23.30
2018-06-30T16:59:20.781Z,23.30
2018-06-30T17:01:56.311Z,23.30
2018-06-30T17:07:07.931Z,23.00
2018-06-30T17:09:43.293Z,23.00
2018-06-30T17:12:19.422Z,23.00
2018-06-30T17:14:54.909Z,23.00
2018-06-30T17:17:30.464Z,23.00
2018-06-30T17:20:05.737Z,22.90
2018-06-30T17:22:41.426Z,22.90
2018-06-30T17:25:16.942Z,22.90
2018-06-30T17:27:52.411Z,22.80
2018-06-30T17:33:03.371Z,22.70
2018-06-30T17:35:38.834Z,22.70
2018-06-30T17:38:14.292Z,22.70
2018-06-30T17:40:49.766Z,22.60
2018-06-30T17:43:25.392Z,22.50
2018-06-30T17:46:00.893Z,22.40
2018-06-30T17:48:36.563Z,22.40
2018-06-30T17:51:11.816Z,22.30
2018-06-30T17:53:47.466Z,22.20
2018-06-30T17:56:22.960Z,22.20
2018-06-30T17:58:59.586Z,22.20
2018-06-30T18:01:35.162Z,22.10
2018-06-30T18:04:10.600Z,22.10
2018-06-30T18:06:45.935Z,22.00
2018-06-30T18:09:21.566Z,22.00
2018-06-30T18:11:56.798Z,21.90
2018-06-30T18:14:32.265Z,21.80
2018-06-30T18:17:07.793Z,21.80
2018-06-30T18:19:43.250Z,21.70
2018-06-30T18:22:18.624Z,21.60
2018-06-30T18:24:54.037Z,21.50
2018-06-30T18:27:29.498Z,21.50
2018-06-30T18:30:05.751Z,21.40
2018-06-30T18:32:40.254Z,21.40
2018-06-30T18:35:15.924Z,21.40
2018-06-30T18:37:51.398Z,21.20
2018-06-30T18:40:27.223Z,21.20
2018-06-30T18:43:02.739Z,21.10
2018-06-30T18:48:13.378Z,21.00
2018-06-30T18:50:49.102Z,21.00
2018-06-30T18:53:24.324Z,20.90
2018-06-30T18:55:59.993Z,20.90
2018-06-30T18:58:35.363Z,20.80
2018-06-30T19:01:11.112Z,20.70
2018-06-30T19:03:46.543Z,20.70
2018-06-30T19:06:22.000Z,20.60
2018-06-30T19:08:57.320Z,20.50
2018-06-30T19:11:32.779Z,20.50
2018-06-30T19:14:08.919Z,20.40
2018-06-30T19:16:44.498Z,20.30
2018-06-30T19:19:20.032Z,20.30
2018-06-30T19:21:56.201Z,20.20
2018-06-30T19:24:31.625Z,20.10
2018-06-30T19:27:07.279Z,20.10
2018-06-30T19:29:42.450Z,20.00
2018-06-30T19:32:18.178Z,20.00
2018-06-30T19:34:53.693Z,19.90
2018-06-30T19:37:29.376Z,19.80
2018-06-30T19:40:05.147Z,19.70
2018-06-30T19:42:40.697Z,19.60
2018-06-30T19:45:16.135Z,19.60
2018-06-30T19:50:26.940Z,19.40
2018-06-30T19:53:02.737Z,19.30
2018-06-30T19:55:38.183Z,19.20
2018-06-30T19:58:14.051Z,19.20
2018-06-30T20:00:49.626Z,19.10
2018-06-30T20:03:25.171Z,19.00
2018-06-30T20:08:58.380Z,18.90
2018-06-30T20:11:33.718Z,18.80
2018-06-30T20:14:09.472Z,18.70
2018-06-30T20:16:44.716Z,18.60
2018-06-30T20:19:20.661Z,18.60
2018-06-30T20:21:56.029Z,18.50
2018-06-30T20:24:31.657Z,18.50
2018-06-30T20:27:07.207Z,18.40
2018-06-30T20:29:42.975Z,18.30
2018-06-30T20:32:19.068Z,18.30
2018-06-30T20:34:54.577Z,18.20
2018-06-30T20:37:30.127Z,18.10
2018-06-30T20:40:05.878Z,18.10
2018-06-30T20:42:41.347Z,18.00
2018-06-30T20:45:16.821Z,18.00
2018-06-30T20:47:52.263Z,18.10
2018-06-30T20:50:27.663Z,18.10
2018-06-30T20:53:03.147Z,18.00
2018-06-30T20:55:38.742Z,18.00
2018-06-30T20:58:14.212Z,17.90
2018-06-30T21:00:50.241Z,17.90
2018-06-30T21:03:25.758Z,17.80
2018-06-30T21:06:01.226Z,17.80
2018-06-30T21:08:36.780Z,17.80
2018-06-30T21:11:12.448Z,17.70
2018-06-30T21:13:47.783Z,17.60
2018-06-30T21:16:23.559Z,17.50
2018-06-30T21:18:58.924Z,17.50
2018-06-30T21:21:34.551Z,17.40
2018-06-30T21:24:09.959Z,17.40
2018-06-30T21:26:45.635Z,17.50
2018-06-30T21:29:21.180Z,17.40
2018-06-30T21:31:56.822Z,17.40
2018-06-30T21:34:35.332Z,17.40
2018-06-30T21:37:10.877Z,17.30
2018-06-30T21:39:46.347Z,17.30
2018-06-30T21:42:21.784Z,17.20
2018-06-30T21:44:57.312Z,17.10
2018-06-30T21:47:32.883Z,17.10
2018-06-30T21:50:08.596Z,17.10
2018-06-30T21:52:44.033Z,17.10
2018-06-30T22:00:48.791Z,17.10
2018-06-30T22:03:26.559Z,17.00
2018-06-30T22:06:02.193Z,17.00
2018-06-30T22:08:37.930Z,17.00
2018-06-30T22:13:48.835Z,16.80
2018-06-30T22:16:24.267Z,16.80
2018-06-30T22:21:35.635Z,16.80
2018-06-30T22:24:11.316Z,16.80
2018-06-30T22:26:46.668Z,16.80
2018-06-30T22:31:57.533Z,16.70
2018-06-30T22:34:33.295Z,16.60
2018-06-30T22:37:08.692Z,16.60
2018-06-30T22:40:22.915Z,16.60
2018-06-30T22:42:58.214Z,16.60
2018-06-30T22:45:33.805Z,16.50
2018-06-30T22:48:09.248Z,16.50
2018-06-30T22:50:44.892Z,16.50
2018-06-30T22:53:20.241Z,16.50
2018-06-30T22:58:30.953Z,16.40
2018-06-30T23:01:06.764Z,16.40
2018-06-30T23:03:42.126Z,16.40
2018-06-30T23:06:17.854Z,16.30
2018-06-30T23:08:53.473Z,16.30
2018-06-30T23:11:29.059Z,16.20
2018-06-30T23:14:04.534Z,16.20
2018-06-30T23:19:15.919Z,16.10
2018-06-30T23:21:51.342Z,16.10
2018-06-30T23:24:26.842Z,16.20
2018-06-30T23:27:02.238Z,16.10
2018-06-30T23:29:37.704Z,16.00
2018-06-30T23:32:13.231Z,16.00
2018-06-30T23:34:48.696Z,16.00
2018-06-30T23:37:24.351Z,16.00
2018-06-30T23:39:59.555Z,15.90
2018-06-30T23:42:35.031Z,15.90
2018-06-30T23:45:10.546Z,15.70
2018-06-30T23:47:46.317Z,15.70
2018-06-30T23:50:22.289Z,15.70
2018-06-30T23:52:57.914Z,15.70
2018-06-30T23:55:33.437Z,15.70
2018-06-30T23:58:09.012Z,15.70
